首页
METAR-TAF:

METAR-TAF

机场 :

宰赫兰, 沙特阿拉伯

纬度: 26-16N, 经度: 050-09E, 海拔: 26米

当前天气观测

该预报发布于46分钟前的08:00 UTC
风速17节,风向南转南东
温度 20°C
湿度 56%
气压 1016 hPa
能见度10公里或以上
1500米以下无云,无积雨云

METAR: OEDR 180800Z 15017KT CAVOK 20/11 Q1016 NOSIG

时间: 11:46 (08:46 UTC)

预报

该预报发布于6小时和16分钟前的02:30 UTC
预报有效从18日的 06点(UTC)到 19日的 12点(UTC)
风速12节,风向,有时为22节阵风
能見度: 8000
短暂存在
从 18日的 06点(UTC)到 18日的 15点(UTC)
能見度: 5000
高吹尘
成为
从 18日的 18点(UTC)到 18日的 20点(UTC)
风速8节,风向南转南东

TAF: OEDR 180230Z 1806/1912 17012G22KT 8000 NSC TEMPO 1806/1815 5000 BLDU BECMG 1818/1820 16008KT

超过4000个机场的气象观测和天气预报(METAR&TAF报告)。

可查询的气象台以黄色和红色小点在地图上表示。

将鼠标移到小点上方,可查看气象台名称。

然后点击查看天气观测和预报。

如需切换地图:点击带黑十字的绿色按钮放大地图;点击带横线的绿色按钮缩小地图;或者点击绿色箭头查看邻近地区的地图。


METAR-TAF: